createdAt,value
2019-04-21T00:01:16.299Z,2.70
2019-04-21T00:03:53.927Z,2.70
2019-04-21T00:06:43.473Z,2.60
2019-04-21T00:09:19.310Z,2.60
2019-04-21T00:11:47.038Z,2.60
2019-04-21T00:14:14.163Z,2.60
2019-04-21T00:16:45.359Z,2.60
2019-04-21T00:19:28.086Z,2.60
2019-04-21T00:22:08.610Z,2.70
2019-04-21T00:25:07.727Z,2.70
2019-04-21T00:27:44.271Z,2.70
2019-04-21T00:30:24.060Z,2.60
2019-04-21T00:32:46.308Z,2.60
2019-04-21T00:35:14.184Z,2.60
2019-04-21T00:38:00.545Z,2.60
2019-04-21T00:40:41.456Z,2.50
2019-04-21T00:43:13.314Z,2.60
2019-04-21T00:45:43.489Z,2.60
2019-04-21T00:48:28.933Z,2.60
2019-04-21T00:51:16.233Z,2.60
2019-04-21T00:53:56.083Z,2.60
2019-04-21T00:56:21.759Z,2.70
2019-04-21T00:58:59.806Z,2.80
2019-04-21T01:01:31.420Z,2.70
2019-04-21T01:04:02.199Z,2.60
2019-04-21T01:06:43.483Z,2.60
2019-04-21T01:09:13.558Z,2.60
2019-04-21T01:11:51.919Z,2.70
2019-04-21T01:14:32.955Z,2.60
2019-04-21T01:19:33.189Z,2.60
2019-04-21T01:21:48.871Z,2.70
2019-04-21T01:24:29.458Z,2.70
2019-04-21T01:27:06.285Z,2.60
2019-04-21T01:29:53.431Z,2.60
2019-04-21T01:32:29.533Z,2.70
2019-04-21T01:35:02.655Z,2.70
2019-04-21T01:37:44.278Z,2.70
2019-04-21T01:40:20.947Z,2.70
2019-04-21T01:42:45.758Z,2.80
2019-04-21T01:45:21.851Z,2.80
2019-04-21T01:47:52.153Z,2.80
2019-04-21T01:50:30.074Z,2.90
2019-04-21T01:53:17.650Z,2.90
2019-04-21T01:56:14.557Z,3.00
2019-04-21T01:58:40.308Z,3.00
2019-04-21T02:01:23.967Z,3.00
2019-04-21T02:04:14.024Z,3.00
2019-04-21T02:06:36.244Z,3.00
2019-04-21T02:09:08.168Z,3.00
2019-04-21T02:11:50.910Z,3.00
2019-04-21T02:14:26.020Z,3.10
2019-04-21T02:16:54.338Z,3.00
2019-04-21T02:19:27.890Z,3.10
2019-04-21T02:21:55.289Z,3.10
2019-04-21T02:24:42.079Z,3.10
2019-04-21T02:27:17.704Z,3.20
2019-04-21T02:29:55.850Z,3.10
2019-04-21T02:32:43.781Z,3.10
2019-04-21T02:35:30.196Z,3.10
2019-04-21T02:38:01.254Z,3.10
2019-04-21T02:40:46.497Z,3.10
2019-04-21T02:43:22.882Z,3.20
2019-04-21T02:45:56.330Z,3.20
2019-04-21T02:48:50.870Z,3.20
2019-04-21T02:51:19.377Z,3.20
2019-04-21T02:56:35.710Z,3.10
2019-04-21T02:59:17.291Z,3.10
2019-04-21T03:02:27.143Z,3.00
2019-04-21T03:07:56.908Z,3.00
2019-04-21T03:13:14.103Z,2.90
2019-04-21T03:18:36.461Z,2.90
2019-04-21T03:21:19.078Z,2.90
2019-04-21T03:26:42.339Z,2.70
2019-04-21T03:29:15.616Z,2.60
2019-04-21T03:34:41.747Z,2.60
2019-04-21T03:39:56.814Z,2.50
2019-04-21T03:42:34.885Z,2.40
2019-04-21T03:45:19.477Z,2.30
2019-04-21T03:47:55.180Z,2.30
2019-04-21T03:50:33.723Z,2.30
2019-04-21T03:55:53.230Z,2.30
2019-04-21T03:58:46.993Z,2.30
2019-04-21T04:01:32.471Z,2.40
2019-04-21T04:04:28.266Z,2.40
2019-04-21T04:07:51.410Z,2.30
2019-04-21T04:10:19.568Z,2.30
2019-04-21T04:12:44.316Z,2.30
2019-04-21T04:15:49.387Z,2.30
2019-04-21T04:18:36.089Z,2.30
2019-04-21T04:20:58.313Z,2.40
2019-04-21T04:23:31.536Z,2.50
2019-04-21T04:25:59.468Z,2.50
2019-04-21T04:33:50.201Z,2.60
2019-04-21T04:39:18.025Z,2.90
2019-04-21T04:41:35.074Z,3.00
2019-04-21T04:44:13.702Z,3.10
2019-04-21T04:47:00.100Z,3.30
2019-04-21T04:49:32.010Z,3.50
2019-04-21T04:51:58.568Z,3.60
2019-04-21T04:54:31.987Z,3.80
2019-04-21T04:56:59.250Z,4.00
2019-04-21T04:59:35.094Z,4.20
2019-04-21T05:02:16.969Z,4.40
2019-04-21T05:07:09.051Z,4.80
2019-04-21T05:12:11.721Z,5.10
2019-04-21T05:14:51.767Z,5.30
2019-04-21T05:17:32.706Z,5.50
2019-04-21T05:20:08.689Z,5.60
2019-04-21T05:22:29.115Z,5.80
2019-04-21T05:24:53.867Z,5.90
2019-04-21T05:27:36.558Z,6.10
2019-04-21T05:30:30.830Z,6.20
2019-04-21T05:33:30.661Z,6.40
2019-04-21T05:36:07.661Z,6.50
2019-04-21T05:38:53.331Z,6.70
2019-04-21T05:41:24.564Z,7.00
2019-04-21T05:44:06.865Z,7.20
2019-04-21T05:46:49.484Z,7.40
2019-04-21T05:49:26.442Z,7.60
2019-04-21T05:51:59.769Z,7.70
2019-04-21T05:54:48.275Z,7.80
2019-04-21T05:57:10.155Z,7.70
2019-04-21T05:59:51.587Z,7.70
2019-04-21T06:02:26.689Z,7.70
2019-04-21T06:05:10.019Z,7.60
2019-04-21T06:07:37.858Z,7.60
2019-04-21T06:10:07.258Z,7.70
2019-04-21T06:12:41.821Z,8.00
2019-04-21T06:15:16.645Z,8.30
2019-04-21T06:17:50.143Z,8.50
2019-04-21T06:20:21.186Z,8.50
2019-04-21T06:23:00.845Z,8.60
2019-04-21T06:28:06.375Z,8.80
2019-04-21T06:30:54.981Z,8.80
2019-04-21T06:33:16.822Z,8.80
2019-04-21T06:36:24.154Z,8.80
2019-04-21T06:39:12.107Z,9.10
2019-04-21T06:44:01.466Z,9.20
2019-04-21T06:49:09.197Z,9.50
2019-04-21T06:51:38.410Z,9.60
2019-04-21T06:54:14.539Z,9.70
2019-04-21T06:57:22.098Z,9.80
2019-04-21T06:59:20.843Z,9.80
2019-04-21T07:02:19.384Z,9.70
2019-04-21T07:04:36.459Z,9.70
2019-04-21T07:07:08.352Z,9.80
2019-04-21T07:09:41.339Z,10.00
2019-04-21T07:12:12.339Z,10.20
2019-04-21T07:14:49.767Z,10.50
2019-04-21T07:17:35.719Z,10.80
2019-04-21T07:20:02.449Z,10.80
2019-04-21T07:22:36.890Z,10.80
2019-04-21T07:25:09.246Z,11.00
2019-04-21T07:27:42.753Z,11.30
2019-04-21T07:30:13.155Z,11.60
2019-04-21T07:32:56.311Z,11.90
2019-04-21T07:35:22.201Z,12.10
2019-04-21T07:37:58.977Z,12.30
2019-04-21T07:40:29.009Z,12.40
2019-04-21T07:43:04.138Z,12.50
2019-04-21T07:45:35.088Z,12.70
2019-04-21T07:48:21.628Z,13.00
2019-04-21T07:51:11.288Z,13.30
2019-04-21T07:53:52.597Z,13.50
2019-04-21T07:56:07.245Z,13.30
2019-04-21T07:58:58.787Z,13.40
2019-04-21T08:01:30.714Z,13.60
2019-04-21T08:04:20.963Z,13.70
2019-04-21T08:06:43.847Z,13.80
2019-04-21T08:09:12.259Z,13.80
2019-04-21T08:11:41.715Z,13.90
2019-04-21T08:14:18.153Z,14.20
2019-04-21T08:17:01.553Z,14.50
2019-04-21T08:19:25.086Z,14.60
2019-04-21T08:22:05.229Z,14.60
2019-04-21T08:24:35.184Z,14.60
2019-04-21T08:27:14.159Z,14.80
2019-04-21T08:29:45.992Z,15.00
2019-04-21T08:32:28.096Z,15.10
2019-04-21T08:35:08.484Z,15.20
2019-04-21T08:37:24.175Z,15.30
2019-04-21T08:42:38.383Z,15.60
2019-04-21T08:45:15.143Z,15.70
2019-04-21T08:47:48.983Z,15.70
2019-04-21T08:50:20.711Z,16.00
2019-04-21T08:52:56.814Z,16.20
2019-04-21T08:55:48.879Z,16.40
2019-04-21T08:58:30.979Z,16.50
2019-04-21T09:01:20.876Z,16.50
2019-04-21T09:03:56.792Z,16.50
2019-04-21T09:06:41.912Z,16.60
2019-04-21T09:09:05.039Z,16.80
2019-04-21T09:11:44.516Z,17.10
2019-04-21T09:14:13.590Z,17.30
2019-04-21T09:16:48.562Z,17.40
2019-04-21T09:19:41.237Z,17.50
2019-04-21T09:22:02.330Z,17.40
2019-04-21T09:24:33.385Z,17.30
2019-04-21T09:27:06.418Z,17.40
2019-04-21T09:29:31.206Z,17.60
2019-04-21T09:32:00.040Z,17.60
2019-04-21T09:34:41.681Z,17.60
2019-04-21T09:37:24.621Z,17.70
2019-04-21T09:39:48.782Z,17.80
2019-04-21T09:42:19.818Z,18.00
2019-04-21T09:44:58.041Z,18.20
2019-04-21T09:47:37.502Z,18.10
2019-04-21T09:50:03.051Z,18.00
2019-04-21T09:52:44.280Z,17.90
2019-04-21T09:55:14.312Z,17.90
2019-04-21T09:57:50.299Z,17.90
2019-04-21T10:00:24.294Z,17.90
2019-04-21T10:03:00.940Z,17.80
2019-04-21T10:05:27.396Z,17.90
2019-04-21T10:08:01.739Z,17.90
2019-04-21T10:10:34.304Z,17.90
2019-04-21T10:13:07.158Z,18.00
2019-04-21T10:15:39.730Z,18.20
2019-04-21T10:18:17.423Z,18.30
2019-04-21T10:20:51.186Z,18.40
2019-04-21T10:23:23.874Z,18.60
2019-04-21T10:25:59.144Z,18.70
2019-04-21T10:28:32.865Z,18.50
2019-04-21T10:31:06.748Z,18.40
2019-04-21T10:33:39.955Z,18.20
2019-04-21T10:36:13.117Z,18.30
2019-04-21T10:38:51.678Z,18.40
2019-04-21T10:41:23.364Z,18.60
2019-04-21T10:43:55.938Z,18.90
2019-04-21T10:46:28.885Z,19.10
2019-04-21T10:49:01.745Z,18.90
2019-04-21T10:51:35.150Z,18.70
2019-04-21T10:54:08.253Z,18.40
2019-04-21T10:56:43.819Z,18.20
2019-04-21T10:59:16.426Z,17.90
2019-04-21T11:01:49.141Z,17.70
2019-04-21T11:04:33.649Z,17.70
2019-04-21T11:07:20.072Z,17.90
2019-04-21T11:09:53.894Z,18.00
2019-04-21T11:12:28.138Z,18.10
2019-04-21T11:15:01.172Z,17.90
2019-04-21T11:17:34.196Z,17.90
2019-04-21T11:20:08.889Z,17.90
2019-04-21T11:22:41.723Z,18.00
2019-04-21T11:25:15.742Z,18.20
2019-04-21T11:27:49.086Z,18.40
2019-04-21T11:30:23.234Z,18.70
2019-04-21T11:32:57.068Z,19.00
2019-04-21T11:35:31.421Z,19.20
2019-04-21T11:38:15.040Z,19.30
2019-04-21T11:40:43.195Z,19.20
2019-04-21T11:43:15.805Z,18.90
2019-04-21T11:45:48.579Z,18.60
2019-04-21T11:48:28.566Z,18.30
2019-04-21T11:51:01.346Z,18.10
2019-04-21T11:53:34.862Z,18.20
2019-04-21T11:56:09.029Z,18.40
2019-04-21T11:58:41.660Z,18.80
2019-04-21T12:01:15.872Z,19.00
2019-04-21T12:03:49.576Z,19.00
2019-04-21T12:06:30.886Z,19.00
2019-04-21T12:08:59.084Z,19.00
2019-04-21T12:11:31.379Z,18.90
2019-04-21T12:14:03.824Z,19.00
2019-04-21T12:16:37.047Z,19.00
2019-04-21T12:19:09.479Z,19.10
2019-04-21T12:21:53.470Z,19.00
2019-04-21T12:24:17.290Z,18.90
2019-04-21T12:26:50.014Z,19.00
2019-04-21T12:29:22.815Z,19.00
2019-04-21T12:32:12.404Z,18.90
2019-04-21T12:34:47.351Z,18.80
2019-04-21T12:37:19.316Z,18.80
2019-04-21T12:39:54.677Z,18.80
2019-04-21T12:42:27.451Z,18.90
2019-04-21T12:44:59.783Z,19.10
2019-04-21T12:47:34.044Z,19.30
2019-04-21T12:50:12.769Z,19.60
2019-04-21T12:52:45.411Z,19.70
2019-04-21T12:55:19.747Z,19.60
2019-04-21T12:57:53.192Z,19.50
2019-04-21T13:00:27.012Z,19.40
2019-04-21T13:02:59.351Z,19.60
2019-04-21T13:05:31.790Z,19.70
2019-04-21T13:08:04.198Z,19.70
2019-04-21T13:10:38.029Z,19.90
2019-04-21T13:13:10.571Z,19.80
2019-04-21T13:15:43.483Z,19.70
2019-04-21T13:18:16.417Z,19.70
2019-04-21T13:20:49.344Z,19.80
2019-04-21T13:23:22.977Z,19.80
2019-04-21T13:25:56.101Z,19.60
2019-04-21T13:28:30.315Z,19.50
2019-04-21T13:31:04.299Z,19.50
2019-04-21T13:33:37.738Z,19.40
2019-04-21T13:36:13.882Z,19.60
2019-04-21T13:39:33.032Z,19.60
2019-04-21T13:41:53.261Z,19.70
2019-04-21T13:44:15.738Z,19.80
2019-04-21T13:46:49.237Z,20.00
2019-04-21T13:49:23.365Z,20.10
2019-04-21T13:51:56.199Z,20.10
2019-04-21T13:54:29.638Z,19.90
2019-04-21T13:57:04.924Z,19.90
2019-04-21T13:59:49.533Z,19.90
2019-04-21T14:02:18.519Z,20.00
2019-04-21T14:04:59.169Z,20.00
2019-04-21T14:07:34.313Z,20.00
2019-04-21T14:10:10.384Z,19.90
2019-04-21T14:12:42.543Z,19.80
2019-04-21T14:15:16.085Z,19.70
2019-04-21T14:17:49.008Z,19.70
2019-04-21T14:20:33.333Z,19.70
2019-04-21T14:23:15.644Z,19.70
2019-04-21T14:25:41.750Z,19.60
2019-04-21T14:28:19.945Z,19.60
2019-04-21T14:30:52.840Z,19.60
2019-04-21T14:33:26.301Z,19.40
2019-04-21T14:36:00.892Z,19.40
2019-04-21T14:38:34.448Z,19.50
2019-04-21T14:41:08.258Z,19.40
2019-04-21T14:43:41.879Z,19.30
2019-04-21T14:46:37.395Z,19.30
2019-04-21T14:49:26.959Z,19.30
2019-04-21T14:52:23.068Z,19.40
2019-04-21T14:55:09.322Z,19.40
2019-04-21T14:57:47.292Z,19.40
2019-04-21T15:00:22.875Z,19.40
2019-04-21T15:02:56.017Z,19.40
2019-04-21T15:05:29.430Z,19.30
2019-04-21T15:08:03.425Z,19.20
2019-04-21T15:10:36.805Z,19.20
2019-04-21T15:13:10.376Z,19.20
2019-04-21T15:15:43.788Z,19.30
2019-04-21T15:18:18.795Z,19.30
2019-04-21T15:20:53.118Z,19.30
2019-04-21T15:23:28.675Z,19.20
2019-04-21T15:26:04.175Z,19.20
2019-04-21T15:28:39.112Z,19.10
2019-04-21T15:31:21.862Z,19.00
2019-04-21T15:33:47.524Z,18.80
2019-04-21T15:36:21.068Z,18.60
2019-04-21T15:38:56.086Z,18.40
2019-04-21T15:41:30.202Z,18.10
2019-04-21T15:44:05.972Z,17.90
2019-04-21T15:46:39.932Z,17.70
2019-04-21T15:49:13.407Z,17.50
2019-04-21T15:51:46.856Z,17.30
2019-04-21T15:54:20.672Z,17.20
2019-04-21T15:57:23.776Z,17.10
2019-04-21T16:00:20.711Z,17.10
2019-04-21T16:03:10.927Z,17.00
2019-04-21T16:05:51.987Z,17.00
2019-04-21T16:08:27.002Z,17.00
2019-04-21T16:11:07.095Z,17.10
2019-04-21T16:13:41.566Z,17.10
2019-04-21T16:16:20.089Z,17.10
2019-04-21T16:18:54.297Z,17.00
2019-04-21T16:21:27.674Z,16.80
2019-04-21T16:24:02.555Z,16.80
2019-04-21T16:26:36.526Z,16.80
2019-04-21T16:29:11.191Z,16.70
2019-04-21T16:31:44.442Z,16.60
2019-04-21T16:34:20.001Z,16.40
2019-04-21T16:36:53.966Z,16.30
2019-04-21T16:39:27.616Z,16.10
2019-04-21T16:42:02.564Z,16.00
2019-04-21T16:44:38.931Z,15.80
2019-04-21T16:47:13.799Z,15.70
2019-04-21T16:49:51.943Z,15.50
2019-04-21T16:52:32.132Z,15.40
2019-04-21T16:55:21.399Z,15.30
2019-04-21T16:58:04.486Z,15.10
2019-04-21T17:00:40.738Z,15.00
2019-04-21T17:03:10.400Z,14.90
2019-04-21T17:05:44.099Z,14.70
2019-04-21T17:08:17.818Z,14.60
2019-04-21T17:11:03.003Z,14.40
2019-04-21T17:13:27.260Z,14.30
2019-04-21T17:16:33.003Z,14.10
2019-04-21T17:18:51.445Z,14.00
2019-04-21T17:21:12.793Z,13.90
2019-04-21T17:23:48.153Z,13.70
2019-04-21T17:26:23.487Z,13.50
2019-04-21T17:29:00.795Z,13.40
2019-04-21T17:31:37.087Z,13.20
2019-04-21T17:34:17.923Z,13.10
2019-04-21T17:36:48.773Z,12.90
2019-04-21T17:39:22.850Z,12.80
2019-04-21T17:42:11.727Z,12.70
2019-04-21T17:44:39.254Z,12.60
2019-04-21T17:47:25.326Z,12.50
2019-04-21T17:50:09.479Z,12.30
2019-04-21T17:53:10.803Z,12.20
2019-04-21T17:55:42.658Z,12.00
2019-04-21T17:58:33.582Z,11.80
2019-04-21T18:01:12.792Z,11.70
2019-04-21T18:03:53.564Z,11.60
2019-04-21T18:06:10.311Z,11.50
2019-04-21T18:08:53.014Z,11.40
2019-04-21T18:11:18.065Z,11.20
2019-04-21T18:13:43.860Z,11.00
2019-04-21T18:16:25.074Z,10.90
2019-04-21T18:18:50.819Z,10.70
2019-04-21T18:21:32.432Z,10.50
2019-04-21T18:24:14.397Z,10.30
2019-04-21T18:26:50.720Z,10.20
2019-04-21T18:29:15.986Z,10.00
2019-04-21T18:31:50.569Z,9.90
2019-04-21T18:35:03.377Z,9.70
2019-04-21T18:38:01.607Z,9.50
2019-04-21T18:40:32.868Z,9.40
2019-04-21T18:43:44.971Z,9.30
2019-04-21T18:46:22.264Z,9.10
2019-04-21T18:48:51.593Z,9.10
2019-04-21T18:51:56.519Z,9.00
2019-04-21T18:54:39.183Z,8.90
2019-04-21T18:57:08.139Z,8.80
2019-04-21T18:59:36.152Z,8.70
2019-04-21T19:02:17.781Z,8.60
2019-04-21T19:04:48.518Z,8.60
2019-04-21T19:07:40.999Z,8.40
2019-04-21T19:10:22.336Z,8.40
2019-04-21T19:13:22.535Z,8.40
2019-04-21T19:15:29.876Z,8.30
2019-04-21T19:20:34.905Z,8.20
2019-04-21T19:23:11.660Z,8.10
2019-04-21T19:25:55.610Z,8.10
2019-04-21T19:28:24.650Z,8.00
2019-04-21T19:31:05.145Z,8.00
2019-04-21T19:33:32.162Z,7.90
2019-04-21T19:35:47.655Z,7.80
2019-04-21T19:38:31.661Z,7.70
2019-04-21T19:41:14.497Z,7.70
2019-04-21T19:43:45.986Z,7.70
2019-04-21T19:46:21.170Z,7.60
2019-04-21T19:49:05.092Z,7.50
2019-04-21T19:51:23.195Z,7.50
2019-04-21T19:53:54.021Z,7.50
2019-04-21T19:56:18.646Z,7.50
2019-04-21T19:58:50.886Z,7.60
2019-04-21T20:01:23.582Z,7.50
2019-04-21T20:03:59.618Z,7.50
2019-04-21T20:06:46.774Z,7.50
2019-04-21T20:09:24.856Z,7.50
2019-04-21T20:12:02.878Z,7.50
2019-04-21T20:14:51.056Z,7.50
2019-04-21T20:17:06.381Z,7.50
2019-04-21T20:19:24.837Z,7.40
2019-04-21T20:21:57.086Z,7.40
2019-04-21T20:24:32.444Z,7.30
2019-04-21T20:27:12.824Z,7.20
2019-04-21T20:29:56.133Z,7.20
2019-04-21T20:32:42.701Z,7.10
2019-04-21T20:35:07.102Z,7.10
2019-04-21T20:37:31.696Z,7.10
2019-04-21T20:39:59.899Z,7.00
2019-04-21T20:42:40.331Z,6.90
2019-04-21T20:45:31.969Z,6.80
2019-04-21T20:47:39.377Z,6.80
2019-04-21T20:50:19.747Z,6.80
2019-04-21T20:52:58.488Z,6.80
2019-04-21T20:55:29.073Z,6.80
2019-04-21T20:58:03.124Z,6.90
2019-04-21T21:01:08.992Z,6.90
2019-04-21T21:03:29.085Z,6.90
2019-04-21T21:06:00.313Z,6.80
2019-04-21T21:08:40.194Z,6.80
2019-04-21T21:11:07.962Z,6.70
2019-04-21T21:13:50.669Z,6.60
2019-04-21T21:16:35.489Z,6.50
2019-04-21T21:19:10.584Z,6.50
2019-04-21T21:21:30.082Z,6.50
2019-04-21T21:24:08.659Z,6.50
2019-04-21T21:26:46.591Z,6.40
2019-04-21T21:29:22.839Z,6.50
2019-04-21T21:31:55.545Z,6.40
2019-04-21T21:34:33.458Z,6.40
2019-04-21T21:37:15.792Z,6.40
2019-04-21T21:39:48.842Z,6.30
2019-04-21T21:42:02.830Z,6.40
2019-04-21T21:44:35.798Z,6.40
2019-04-21T21:47:23.944Z,6.30
2019-04-21T21:49:55.515Z,6.20
2019-04-21T21:52:31.367Z,6.10
2019-04-21T21:54:54.043Z,6.00
2019-04-21T21:57:28.327Z,6.10
2019-04-21T22:00:04.712Z,6.00
2019-04-21T22:02:45.528Z,6.00
2019-04-21T22:05:16.791Z,6.00
2019-04-21T22:07:46.590Z,5.90
2019-04-21T22:10:20.148Z,5.90
2019-04-21T22:13:01.017Z,5.80
2019-04-21T22:15:32.003Z,5.80
2019-04-21T22:18:28.743Z,5.70
2019-04-21T22:20:56.553Z,5.70
2019-04-21T22:23:24.183Z,5.70
2019-04-21T22:25:49.205Z,5.60
2019-04-21T22:28:22.440Z,5.60
2019-04-21T22:30:56.869Z,5.60
2019-04-21T22:33:34.505Z,5.60
2019-04-21T22:36:18.155Z,5.60
2019-04-21T22:38:54.907Z,5.60
2019-04-21T22:43:46.130Z,5.50
2019-04-21T22:46:16.177Z,5.40
2019-04-21T22:48:53.252Z,5.40
2019-04-21T22:51:34.866Z,5.60
2019-04-21T22:54:01.426Z,5.50
2019-04-21T22:56:36.070Z,5.50
2019-04-21T22:59:15.129Z,5.50
2019-04-21T23:01:49.784Z,5.50
2019-04-21T23:04:18.542Z,5.60
2019-04-21T23:06:59.303Z,5.50
2019-04-21T23:09:26.696Z,5.50
2019-04-21T23:12:01.925Z,5.40
2019-04-21T23:14:45.315Z,5.40
2019-04-21T23:17:29.482Z,5.40
2019-04-21T23:20:05.639Z,5.40
2019-04-21T23:22:49.300Z,5.30
2019-04-21T23:25:12.380Z,5.30
2019-04-21T23:27:46.911Z,5.20
2019-04-21T23:30:34.001Z,5.20
2019-04-21T23:32:50.743Z,5.20
2019-04-21T23:35:22.723Z,5.20
2019-04-21T23:37:56.476Z,5.20
2019-04-21T23:40:27.373Z,5.20
2019-04-21T23:43:00.109Z,5.30
2019-04-21T23:45:37.736Z,5.30
2019-04-21T23:48:23.558Z,5.30
2019-04-21T23:50:51.347Z,5.20
2019-04-21T23:53:17.440Z,5.20
2019-04-21T23:55:50.440Z,5.20
2019-04-21T23:58:26.392Z,5.20
